Time;durP1;ratioP1;P1;durP2;ratioP2;P2;SDS_P1;SDS_P2;PMS_P1;PMS_P2;Temp;Humidity;BMP_temperature;BMP_pressure;BME280_temperature;BME280_humidity;BME280_pressure;Samples;Min_cycle;Max_cycle;Signal;HPM_P1;HPM_P2
2021/12/29 00:01:36;;;;;;;;;;;8.90;99.90;;;;;;10206452;28;86285;-57
2021/12/29 00:06:37;;;;;;;8.40;4.10;;;8.90;99.90;;;;;;10207853;28;84762;-56
2021/12/29 00:11:40;;;;;;;;;;;9.00;99.90;;;;;;10206530;28;85973;-52
2021/12/29 00:16:40;;;;;;;8.60;4.00;;;9.00;99.90;;;;;;10207377;28;84717;-52
2021/12/29 00:21:41;;;;;;;6.50;3.60;;;9.00;99.90;;;;;;10207662;28;84985;-54
2021/12/29 00:26:42;;;;;;;;;;;9.00;99.90;;;;;;10208382;28;84275;-55
2021/12/29 00:31:42;;;;;;;5.10;2.65;;;9.10;99.90;;;;;;10209798;28;87228;-58
2021/12/29 00:37:02;;;;;;;;;;;9.10;99.90;;;;;;10208606;28;84528;-59
2021/12/29 00:42:25;;;;;;;;;;;9.10;99.90;;;;;;10206482;28;84537;-56
2021/12/29 00:47:45;;;;;;;;;;;9.20;99.90;;;;;;10210031;28;84099;-57
2021/12/29 00:52:46;;;;;;;1.50;0.80;;;9.20;99.90;;;;;;10193489;28;85081;-55
2021/12/29 00:57:47;;;;;;;2.80;1.35;;;9.20;99.90;;;;;;10206284;28;84873;-56
2021/12/29 01:02:48;;;;;;;;;;;9.20;99.90;;;;;;10205609;28;86031;-56
2021/12/29 01:07:49;;;;;;;2.45;1.45;;;9.20;99.90;;;;;;10206274;28;84870;-58
2021/12/29 01:12:57;;;;;;;2.90;1.60;;;9.20;99.90;;;;;;10208082;28;84184;-57
2021/12/29 01:18:00;;;;;;;2.20;1.30;;;9.20;99.90;;;;;;10213350;28;84312;-53
2021/12/29 01:23:01;;;;;;;3.55;1.55;;;9.30;99.90;;;;;;10214726;28;85004;-56
2021/12/29 01:28:01;;;;;;;2.90;1.83;;;9.20;99.90;;;;;;10213589;28;84763;-54
2021/12/29 01:33:06;;;;;;;2.50;1.23;;;9.30;99.90;;;;;;10214091;28;84892;-55
2021/12/29 01:38:08;;;;;;;2.00;1.20;;;9.30;99.90;;;;;;10213261;28;84259;-56
2021/12/29 01:43:09;;;;;;;4.30;1.50;;;9.30;99.90;;;;;;10211210;28;87172;-57
2021/12/29 01:48:11;;;;;;;2.70;1.20;;;9.40;99.90;;;;;;10212551;28;84889;-54
2021/12/29 01:53:21;;;;;;;;;;;9.40;99.90;;;;;;10213144;28;85166;-54
2021/12/29 01:58:23;;;;;;;;;;;9.40;99.90;;;;;;10213604;28;84180;-55
2021/12/29 02:03:24;;;;;;;1.50;1.10;;;9.40;99.90;;;;;;10213064;28;84925;-53
2021/12/29 02:08:24;;;;;;;2.40;1.30;;;9.40;99.90;;;;;;10210297;28;85060;-55
2021/12/29 02:13:25;;;;;;;2.25;1.15;;;9.40;99.90;;;;;;10211604;28;84878;-58
2021/12/29 02:18:26;;;;;;;2.75;1.30;;;9.40;99.90;;;;;;10211229;28;84858;-56
2021/12/29 02:23:35;;;;;;;2.65;1.30;;;9.40;99.90;;;;;;10211248;28;84877;-52
2021/12/29 02:28:41;;;;;;;2.25;1.50;;;9.30;99.90;;;;;;10211009;28;84992;-55
2021/12/29 02:33:42;;;;;;;2.93;1.40;;;9.40;99.90;;;;;;10211368;28;84807;-55
2021/12/29 02:38:48;;;;;;;2.00;1.20;;;9.40;99.90;;;;;;10209505;28;85010;-56
2021/12/29 02:43:57;;;;;;;1.60;1.10;;;9.40;99.90;;;;;;10209646;28;86131;-56
2021/12/29 02:48:59;;;;;;;1.85;1.30;;;9.30;99.90;;;;;;10208096;28;84245;-56
2021/12/29 02:54:01;;;;;;;2.60;1.40;;;9.30;99.90;;;;;;10210473;28;84957;-55
2021/12/29 02:59:03;;;;;;;2.50;1.20;;;9.30;99.90;;;;;;10210397;28;84994;-53
2021/12/29 03:04:05;;;;;;;2.40;1.40;;;9.30;99.90;;;;;;10211709;28;85249;-55
2021/12/29 03:09:09;;;;;;;2.53;1.20;;;9.30;99.90;;;;;;10212497;28;84693;-59
2021/12/29 03:14:10;;;;;;;1.98;1.05;;;9.30;99.90;;;;;;10211646;28;84147;-56
2021/12/29 03:19:11;;;;;;;4.10;1.70;;;9.40;99.90;;;;;;10209889;28;84028;-51
2021/12/29 03:24:14;;;;;;;3.15;1.45;;;9.40;99.90;;;;;;10209812;28;84974;-52
2021/12/29 03:29:15;;;;;;;2.05;1.05;;;9.40;99.90;;;;;;10209626;28;84130;-52
2021/12/29 03:34:15;;;;;;;2.00;1.23;;;9.40;99.90;;;;;;10209470;28;85050;-53
2021/12/29 03:39:17;;;;;;;1.92;1.15;;;9.40;99.90;;;;;;10207798;28;84896;-51
2021/12/29 03:44:18;;;;;;;1.80;1.30;;;9.40;99.90;;;;;;10208601;28;84820;-51
2021/12/29 03:49:20;;;;;;;2.70;1.55;;;9.30;99.90;;;;;;10208422;28;85055;-51
2021/12/29 03:54:20;;;;;;;2.90;1.50;;;9.30;99.90;;;;;;10209042;28;84153;-57
2021/12/29 03:59:21;;;;;;;2.00;1.15;;;9.30;99.90;;;;;;10207662;28;84122;-52
2021/12/29 04:04:22;;;;;;;3.60;1.50;;;9.20;99.90;;;;;;10207955;28;84153;-54
2021/12/29 04:09:22;;;;;;;2.50;1.60;;;9.20;99.90;;;;;;10206211;28;85974;-51
2021/12/29 04:14:26;;;;;;;3.50;1.80;;;9.30;99.90;;;;;;10207671;28;85253;-51
2021/12/29 04:19:39;;;;;;;5.30;2.00;;;9.30;99.90;;;;;;10207300;28;84117;-53
2021/12/29 04:24:40;;;;;;;3.43;2.23;;;9.20;99.90;;;;;;10207505;28;84871;-57
2021/12/29 04:29:41;;;;;;;3.70;2.00;;;9.20;99.90;;;;;;10205837;28;87194;-55
2021/12/29 04:34:42;;;;;;;6.45;3.35;;;9.20;99.90;;;;;;10207833;28;84353;-53
2021/12/29 04:39:43;;;;;;;9.30;4.10;;;9.30;99.90;;;;;;10207153;28;84301;-49
2021/12/29 04:44:43;;;;;;;;;;;9.20;99.90;;;;;;10204796;28;86059;-56
2021/12/29 04:49:45;;;;;;;;;;;9.10;99.90;;;;;;10205581;28;84849;-56
2021/12/29 04:54:46;;;;;;;10.10;4.70;;;9.00;99.90;;;;;;10205500;28;86038;-56
2021/12/29 04:59:46;;;;;;;10.30;4.80;;;9.00;99.90;;;;;;10206095;28;84016;-54
2021/12/29 05:04:56;;;;;;;10.30;4.70;;;9.10;99.90;;;;;;10206164;28;84972;-56
2021/12/29 05:09:57;;;;;;;;;;;9.00;99.90;;;;;;10205127;28;84094;-56
2021/12/29 05:14:58;;;;;;;;;;;9.00;99.90;;;;;;10205529;28;84139;-55
2021/12/29 05:19:58;;;;;;;;;;;9.00;99.90;;;;;;10205779;28;84426;-48
2021/12/29 05:24:59;;;;;;;;;;;9.00;99.90;;;;;;10204791;28;84987;-54
2021/12/29 05:30:02;;;;;;;;;;;9.00;99.90;;;;;;10204079;28;84180;-53
2021/12/29 05:35:04;;;;;;;8.10;3.65;;;8.90;99.90;;;;;;10205080;28;84869;-54
2021/12/29 05:40:06;;;;;;;7.60;4.05;;;9.00;99.90;;;;;;10205097;28;84978;-54
2021/12/29 05:45:09;;;;;;;;;;;9.00;99.90;;;;;;10226537;23;85770;-50
2021/12/29 05:50:14;;;;;;;5.20;2.80;;;9.00;99.90;;;;;;10202961;28;85975;-54
2021/12/29 05:55:16;;;;;;;5.90;3.10;;;8.90;99.90;;;;;;10204649;28;84147;-53
2021/12/29 06:00:18;;;;;;;6.90;3.40;;;9.00;99.90;;;;;;10189920;28;86235;-53
2021/12/29 06:05:20;;;;;;;7.25;2.85;;;9.00;99.90;;;;;;10211908;28;85028;-57
2021/12/29 06:10:21;;;;;;;5.40;2.75;;;8.90;99.90;;;;;;10211354;28;84166;-54
2021/12/29 06:15:21;;;;;;;4.40;2.20;;;8.90;99.90;;;;;;10210548;28;85833;-55
2021/12/29 06:20:22;;;;;;;4.75;2.30;;;9.00;99.90;;;;;;10210540;28;86991;-56
2021/12/29 06:25:23;;;;;;;3.55;1.85;;;9.00;99.90;;;;;;10209281;28;85783;-51
2021/12/29 06:30:25;;;;;;;5.50;2.10;;;9.00;99.90;;;;;;10209952;28;84862;-52
2021/12/29 06:35:25;;;;;;;3.70;1.75;;;9.00;99.90;;;;;;10210117;28;84686;-53
2021/12/29 06:40:26;;;;;;;3.50;1.90;;;9.00;99.90;;;;;;10210426;28;84109;-52
2021/12/29 06:45:27;;;;;;;4.30;2.10;;;8.90;99.90;;;;;;10208837;28;84285;-50
2021/12/29 06:50:27;;;;;;;7.10;2.50;;;9.00;99.90;;;;;;10207491;28;84881;-56
2021/12/29 06:55:28;;;;;;;4.80;2.30;;;9.00;99.90;;;;;;10208746;28;84714;-54
2021/12/29 07:00:29;;;;;;;;;;;9.00;99.90;;;;;;10208772;28;85266;-49
2021/12/29 07:05:29;;;;;;;;;;;9.00;99.90;;;;;;10208479;28;84770;-52
2021/12/29 07:10:30;;;;;;;;;;;9.00;99.90;;;;;;10209154;28;84804;-50
2021/12/29 07:15:30;;;;;;;;;;;9.00;99.90;;;;;;10207625;28;84179;-56
2021/12/29 07:20:31;;;;;;;;;;;9.10;99.90;;;;;;10208559;28;84888;-53
2021/12/29 07:25:32;;;;;;;;;;;9.10;99.90;;;;;;10208482;28;84944;-55
2021/12/29 07:30:32;;;;;;;;;;;9.10;99.90;;;;;;10209153;28;84059;-55
2021/12/29 07:35:33;;;;;;;11.80;5.20;;;9.10;99.90;;;;;;10206668;28;85898;-53
2021/12/29 07:40:34;;;;;;;13.00;4.60;;;9.20;99.90;;;;;;10208353;28;84284;-54
2021/12/29 07:45:35;;;;;;;;;;;9.20;99.90;;;;;;10207549;28;84211;-54
2021/12/29 07:50:37;;;;;;;12.00;4.50;;;9.20;99.90;;;;;;10207119;28;84011;-55
2021/12/29 07:55:37;;;;;;;;;;;9.20;99.90;;;;;;10208315;28;85038;-56
2021/12/29 08:00:38;;;;;;;12.80;5.75;;;9.20;99.90;;;;;;10206789;28;85141;-51
2021/12/29 08:05:40;;;;;;;11.52;5.32;;;9.20;99.90;;;;;;10207051;28;84989;-55
2021/12/29 08:10:41;;;;;;;10.47;4.60;;;9.30;99.90;;;;;;10207822;28;84160;-55
2021/12/29 08:15:42;;;;;;;13.60;5.65;;;9.40;99.90;;;;;;10206723;28;84343;-55
2021/12/29 08:20:43;;;;;;;14.90;5.70;;;9.40;99.90;;;;;;10207208;28;84813;-58
2021/12/29 08:25:44;;;;;;;14.05;6.05;;;9.50;99.90;;;;;;10206234;28;84094;-56
2021/12/29 08:30:44;;;;;;;;;;;9.40;99.90;;;;;;10206188;28;84953;-52
2021/12/29 08:35:45;;;;;;;;;;;9.50;99.90;;;;;;10205029;28;87240;-54
2021/12/29 08:40:46;;;;;;;9.20;5.50;;;9.50;99.90;;;;;;10207144;28;84021;-54
2021/12/29 08:45:46;;;;;;;;;;;9.50;99.90;;;;;;10203328;28;84944;-56
2021/12/29 08:50:47;;;;;;;11.30;5.40;;;9.50;99.90;;;;;;10205527;28;84870;-55
2021/12/29 08:55:49;;;;;;;13.45;5.65;;;9.50;99.90;;;;;;10205715;28;84989;-56
2021/12/29 09:00:49;;;;;;;10.80;5.20;;;9.50;99.90;;;;;;10205711;28;84786;-55
2021/12/29 09:05:50;;;;;;;15.60;5.60;;;9.60;99.90;;;;;;10206108;28;84509;-53
2021/12/29 09:10:52;;;;;;;14.60;5.60;;;9.50;99.90;;;;;;10206069;28;84792;-56
2021/12/29 09:15:56;;;;;;;12.90;6.00;;;9.60;99.90;;;;;;10203815;28;87117;-56
2021/12/29 09:21:06;;;;;;;10.75;5.45;;;9.50;99.90;;;;;;10206425;28;84334;-52
2021/12/29 09:26:09;;;;;;;13.20;5.60;;;9.60;99.90;;;;;;10205131;28;84011;-53
2021/12/29 09:31:10;;;;;;;9.67;5.13;;;9.60;99.90;;;;;;10205265;28;85162;-56
2021/12/29 09:36:11;;;;;;;11.20;5.40;;;9.50;99.90;;;;;;10207539;28;85584;-52
2021/12/29 09:41:16;;;;;;;10.80;5.50;;;9.60;99.90;;;;;;10211997;28;84708;-53
2021/12/29 09:46:17;;;;;;;;;;;9.50;99.90;;;;;;10210538;28;84126;-56
2021/12/29 09:51:18;;;;;;;;;;;9.70;99.90;;;;;;10211067;28;84123;-57
2021/12/29 09:56:18;;;;;;;;;;;9.70;99.90;;;;;;10209780;28;85122;-55
2021/12/29 10:01:20;;;;;;;;;;;9.70;99.90;;;;;;10211902;28;84353;-55
2021/12/29 10:06:21;;;;;;;;;;;9.70;99.90;;;;;;10210738;28;84106;-54
2021/12/29 10:11:29;;;;;;;9.10;4.75;;;9.80;99.90;;;;;;10211368;28;84131;-54
2021/12/29 10:16:30;;;;;;;9.00;4.80;;;9.80;99.90;;;;;;10210739;28;84097;-54
2021/12/29 10:21:31;;;;;;;14.50;5.80;;;9.70;99.90;;;;;;10211126;28;84736;-57
2021/12/29 10:26:34;;;;;;;;;;;9.70;99.90;;;;;;10209558;28;84958;-53
2021/12/29 10:31:40;;;;;;;;;;;9.70;99.90;;;;;;10210447;28;84215;-52
2021/12/29 10:36:49;;;;;;;8.45;4.40;;;9.70;99.90;;;;;;10210089;28;84389;-54
2021/12/29 10:41:55;;;;;;;;;;;9.70;99.90;;;;;;10209303;28;86235;-57
2021/12/29 10:46:56;;;;;;;7.80;4.80;;;9.80;99.90;;;;;;10206669;28;85090;-55
2021/12/29 10:51:58;;;;;;;9.30;4.80;;;9.80;99.90;;;;;;10210141;28;84809;-54
2021/12/29 10:57:02;;;;;;;;;;;9.80;99.90;;;;;;10209152;28;84176;-50
2021/12/29 11:02:03;;;;;;;;;;;9.80;99.90;;;;;;10208702;28;85708;-57
2021/12/29 11:07:04;;;;;;;;;;;9.90;99.90;;;;;;10208552;28;84058;-53
2021/12/29 11:12:09;;;;;;;;;;;9.90;99.90;;;;;;10208616;28;84935;-57
2021/12/29 11:17:14;;;;;;;;;;;10.00;99.90;;;;;;10208725;28;84112;-55
2021/12/29 11:22:17;;;;;;;;;;;10.10;99.90;;;;;;10208810;28;84312;-55
2021/12/29 11:27:18;;;;;;;;;;;10.10;99.90;;;;;;10208355;28;84757;-54
2021/12/29 11:32:35;;;;;;;14.70;6.30;;;10.00;99.90;;;;;;10208436;28;84841;-56
2021/12/29 11:37:40;;;;;;;;;;;10.20;99.90;;;;;;10208018;28;84962;-54
2021/12/29 11:42:41;;;;;;;10.60;6.40;;;10.20;99.90;;;;;;10208915;28;84899;-56
2021/12/29 11:47:43;;;;;;;13.05;5.90;;;10.30;99.90;;;;;;10219697;23;85017;-57
2021/12/29 11:52:58;;;;;;;14.10;6.60;;;10.40;99.90;;;;;;10208964;28;85614;-57
2021/12/29 11:58:27;;;;;;;;;;;10.50;99.90;;;;;;10207517;28;84153;-56
2021/12/29 12:03:37;;;;;;;;;;;10.50;99.90;;;;;;10186083;28;86698;-59
2021/12/29 12:08:38;;;;;;;15.50;7.00;;;10.50;99.90;;;;;;10209084;28;85029;-55
2021/12/29 12:13:43;;;;;;;14.60;7.20;;;10.50;99.90;;;;;;10206756;28;87661;-53
2021/12/29 12:18:50;;;;;;;15.30;6.90;;;10.50;99.90;;;;;;10205400;28;84959;-54
2021/12/29 12:23:52;;;;;;;;;;;10.40;99.90;;;;;;10207804;28;85745;-59
2021/12/29 12:28:54;;;;;;;13.50;7.00;;;10.40;99.90;;;;;;10205986;28;86043;-55
2021/12/29 12:34:08;;;;;;;13.85;6.70;;;10.30;99.90;;;;;;10207219;28;84243;-55
2021/12/29 12:39:18;;;;;;;15.40;8.10;;;10.30;99.90;;;;;;10207121;28;84975;-55
2021/12/29 12:44:31;;;;;;;16.75;7.95;;;10.20;99.90;;;;;;10206838;28;84943;-54
2021/12/29 12:49:42;;;;;;;16.50;7.80;;;10.30;99.90;;;;;;10206540;28;84053;-53
2021/12/29 12:54:45;;;;;;;;;;;10.40;99.90;;;;;;10206217;28;84160;-53
2021/12/29 12:59:46;;;;;;;17.40;8.10;;;10.50;99.90;;;;;;10206494;28;84276;-52
2021/12/29 13:05:12;;;;;;;17.70;8.70;;;10.40;99.90;;;;;;10205993;28;84104;-55
2021/12/29 13:10:21;;;;;;;21.70;9.20;;;10.30;99.90;;;;;;10205876;28;84990;-54
2021/12/29 13:15:23;;;;;;;19.00;9.10;;;10.20;99.90;;;;;;10205868;28;85038;-62
2021/12/29 13:20:24;;;;;;;17.40;8.90;;;10.10;99.90;;;;;;10206047;28;84286;-56
2021/12/29 13:25:28;;;;;;;;;;;10.10;99.90;;;;;;10191421;28;85732;-56
2021/12/29 13:30:30;;;;;;;;;;;10.00;99.90;;;;;;10205834;28;84776;-58
2021/12/29 13:35:36;;;;;;;15.60;8.60;;;9.90;99.90;;;;;;10204908;28;84858;-55
2021/12/29 13:40:41;;;;;;;;;;;9.80;99.90;;;;;;10205190;28;84267;-57
2021/12/29 13:45:42;;;;;;;;;;;9.80;99.90;;;;;;10202287;28;85932;-56
2021/12/29 13:51:01;;;;;;;;;;;9.80;99.90;;;;;;10204150;28;86214;-57
2021/12/29 13:56:05;;;;;;;;;;;9.70;99.90;;;;;;10203358;28;84876;-56
2021/12/29 14:01:06;;;;;;;;;;;9.70;99.90;;;;;;10201988;28;86833;-59
2021/12/29 14:06:08;;;;;;;;;;;9.70;99.90;;;;;;10203190;28;85054;-57
2021/12/29 14:11:09;;;;;;;;;;;9.70;99.90;;;;;;10203766;28;86484;-55
2021/12/29 14:16:16;;;;;;;16.00;8.60;;;9.70;99.90;;;;;;10203109;28;85326;-56
2021/12/29 14:21:17;;;;;;;;;;;9.70;99.90;;;;;;10205236;28;84147;-57
2021/12/29 14:26:18;;;;;;;;;;;9.60;99.90;;;;;;10209568;28;85030;-57
2021/12/29 14:31:19;;;;;;;;;;;9.50;99.90;;;;;;10210717;28;84294;-55
2021/12/29 14:36:28;;;;;;;;;;;9.60;99.90;;;;;;10210028;28;84896;-59
2021/12/29 14:41:29;;;;;;;;;;;9.50;99.90;;;;;;10210473;28;85050;-54
2021/12/29 14:46:30;;;;;;;;;;;9.50;99.90;;;;;;10208241;28;86859;-56
2021/12/29 14:51:32;;;;;;;;;;;9.50;99.90;;;;;;10209984;28;84132;-57
2021/12/29 14:56:32;;;;;;;;;;;9.50;99.90;;;;;;10207290;28;87487;-51
2021/12/29 15:01:34;;;;;;;;;;;9.40;99.90;;;;;;10209036;28;84063;-59
2021/12/29 15:06:36;;;;;;;;;;;9.40;99.90;;;;;;10207684;28;84694;-56
2021/12/29 15:11:41;;;;;;;;;;;9.40;99.90;;;;;;10209497;28;84065;-54
2021/12/29 15:16:59;;;;;;;;;;;9.40;99.90;;;;;;10208442;28;84931;-59
2021/12/29 15:21:59;;;;;;;;;;;9.30;99.90;;;;;;10207099;28;84867;-57
2021/12/29 15:27:00;;;;;;;;;;;9.30;99.90;;;;;;10208269;28;84256;-56
2021/12/29 15:32:00;;;;;;;;;;;9.30;99.90;;;;;;10207533;28;84935;-58
2021/12/29 15:37:01;;;;;;;;;;;9.20;99.90;;;;;;10205607;28;84742;-53
2021/12/29 15:42:02;;;;;;;;;;;9.10;99.90;;;;;;10206467;28;85948;-57
2021/12/29 15:47:02;;;;;;;;;;;9.10;99.90;;;;;;10206327;28;84907;-55
2021/12/29 15:52:03;;;;;;;13.80;6.40;;;9.00;99.90;;;;;;10208076;28;84075;-57
2021/12/29 15:57:06;;;;;;;;;;;9.00;99.90;;;;;;10207070;28;86037;-58
2021/12/29 16:02:07;;;;;;;;;;;8.90;99.90;;;;;;10207769;28;84975;-56
2021/12/29 16:07:10;;;;;;;;;;;9.00;99.90;;;;;;10206688;28;84212;-55
2021/12/29 16:12:13;;;;;;;;;;;9.00;99.90;;;;;;10206504;28;84155;-57
2021/12/29 16:17:14;;;;;;;;;;;8.90;99.90;;;;;;10206635;28;84001;-56
2021/12/29 16:22:14;;;;;;;;;;;8.90;99.90;;;;;;10206411;28;84851;-51
2021/12/29 16:27:21;;;;;;;;;;;8.80;99.90;;;;;;10205002;28;86064;-55
2021/12/29 16:32:23;;;;;;;;;;;8.80;99.90;;;;;;10207850;28;84076;-55
2021/12/29 16:37:24;;;;;;;;;;;8.70;99.90;;;;;;10205118;28;84247;-58
2021/12/29 16:42:28;;;;;;;;;;;8.70;99.90;;;;;;10205565;28;85050;-53
2021/12/29 16:47:29;;;;;;;;;;;8.70;99.90;;;;;;10203354;28;85004;-53
2021/12/29 16:52:30;;;;;;;;;;;8.70;99.90;;;;;;10205332;28;85134;-52
2021/12/29 16:57:30;;;;;;;;;;;8.60;99.90;;;;;;10206072;28;84053;-51
2021/12/29 17:02:31;;;;;;;;;;;8.60;99.90;;;;;;10205890;28;84128;-51
2021/12/29 17:07:32;;;;;;;12.30;5.80;;;8.60;99.90;;;;;;10205609;28;84893;-54
2021/12/29 17:12:32;;;;;;;;;;;8.60;99.90;;;;;;10205615;28;85145;-50
2021/12/29 17:17:33;;;;;;;;;;;8.60;99.90;;;;;;10203787;28;84044;-52
2021/12/29 17:22:34;;;;;;;9.30;5.40;;;8.60;99.90;;;;;;10203931;28;85042;-51
2021/12/29 17:27:35;;;;;;;;;;;8.60;99.90;;;;;;10203175;28;84246;-52
2021/12/29 17:32:36;;;;;;;;;;;8.60;99.90;;;;;;10205075;28;84753;-52
2021/12/29 17:37:39;;;;;;;;;;;8.70;99.90;;;;;;10204508;28;84931;-54
2021/12/29 17:42:40;;;;;;;;;;;8.70;99.90;;;;;;10203448;28;84065;-58
2021/12/29 17:47:40;;;;;;;;;;;8.60;99.90;;;;;;10217417;23;84948;-55
2021/12/29 17:52:41;;;;;;;;;;;8.60;99.90;;;;;;10204018;28;84217;-56
2021/12/29 17:57:42;;;;;;;10.30;4.20;;;8.70;99.90;;;;;;10209293;28;84850;-55
2021/12/29 18:02:43;;;;;;;;;;;8.60;99.90;;;;;;10210432;28;85683;-53
2021/12/29 18:07:44;;;;;;;;;;;8.70;99.90;;;;;;10209813;28;87717;-53
2021/12/29 18:12:45;;;;;;;;;;;8.70;99.90;;;;;;10210914;28;84008;-56
2021/12/29 18:17:46;;;;;;;;;;;8.80;99.90;;;;;;10211606;28;84837;-56
2021/12/29 18:22:47;;;;;;;9.05;4.90;;;8.80;99.90;;;;;;10211169;28;84087;-55
2021/12/29 18:27:47;;;;;;;7.50;4.30;;;8.90;99.90;;;;;;10211370;28;85024;-57
2021/12/29 18:32:51;;;;;;;;;;;8.90;99.90;;;;;;10210979;28;84248;-52
2021/12/29 18:37:52;;;;;;;7.10;4.20;;;8.90;99.90;;;;;;10209916;28;86048;-55
2021/12/29 18:42:53;;;;;;;7.70;4.60;;;9.10;99.90;;;;;;10211606;28;84038;-53
2021/12/29 18:47:54;;;;;;;;;;;9.10;99.90;;;;;;10209981;28;84643;-56
2021/12/29 18:52:55;;;;;;;;;;;9.20;99.90;;;;;;10210500;28;84320;-55
2021/12/29 18:57:56;;;;;;;;;;;9.30;99.90;;;;;;10208595;28;86008;-52
2021/12/29 19:02:57;;;;;;;;;;;9.30;99.90;;;;;;10210006;28;84791;-55
2021/12/29 19:07:58;;;;;;;9.40;5.60;;;9.40;99.90;;;;;;10208419;28;84723;-55
2021/12/29 19:12:59;;;;;;;9.25;5.70;;;9.40;99.90;;;;;;10209607;28;84804;-56
2021/12/29 19:18:00;;;;;;;8.40;5.40;;;9.40;99.90;;;;;;10210049;28;85333;-54
2021/12/29 19:23:01;;;;;;;;;;;9.50;99.90;;;;;;10208416;28;86015;-54
2021/12/29 19:28:15;;;;;;;10.20;6.00;;;9.50;99.90;;;;;;10210647;28;85409;-53
2021/12/29 19:33:16;;;;;;;;;;;9.60;99.90;;;;;;10209911;28;84788;-53
2021/12/29 19:38:18;;;;;;;13.65;6.90;;;9.70;99.90;;;;;;10209932;28;84970;-53
2021/12/29 19:43:19;;;;;;;9.30;6.10;;;9.80;99.90;;;;;;10210732;28;85105;-54
2021/12/29 19:48:20;;;;;;;10.20;6.70;;;9.90;99.90;;;;;;10209654;28;84991;-54
2021/12/29 19:53:23;;;;;;;11.40;7.50;;;10.00;99.90;;;;;;10209985;28;84016;-52
2021/12/29 19:58:24;;;;;;;11.35;6.90;;;10.10;99.90;;;;;;10208135;28;86878;-51
2021/12/29 20:03:28;;;;;;;11.60;6.40;;;10.10;99.90;;;;;;10208273;28;85935;-53
2021/12/29 20:08:29;;;;;;;11.07;7.07;;;10.30;99.90;;;;;;10206193;28;86710;-55
2021/12/29 20:13:30;;;;;;;9.40;5.70;;;10.50;99.90;;;;;;10208279;28;85046;-56
2021/12/29 20:18:31;;;;;;;10.80;6.85;;;10.60;99.90;;;;;;10205153;28;86133;-56
2021/12/29 20:23:32;;;;;;;13.00;7.30;;;10.70;99.90;;;;;;10207611;28;84967;-55
2021/12/29 20:28:39;;;;;;;12.60;6.90;;;10.80;99.90;;;;;;10206625;28;84041;-54
2021/12/29 20:33:39;;;;;;;11.20;6.35;;;10.90;99.90;;;;;;10207457;28;84792;-53
2021/12/29 20:38:41;;;;;;;13.50;6.70;;;11.00;99.90;;;;;;10207202;28;84976;-53
2021/12/29 20:43:42;;;;;;;12.30;7.20;;;11.20;99.90;;;;;;10207190;28;84910;-56
2021/12/29 20:48:43;;;;;;;;;;;11.30;99.90;;;;;;10206214;28;84780;-56
2021/12/29 20:53:43;;;;;;;19.30;8.60;;;11.50;99.90;;;;;;10206546;28;84032;-57
2021/12/29 20:58:45;;;;;;;18.80;8.50;;;11.50;99.90;;;;;;10205316;28;87241;-56
2021/12/29 21:03:46;;;;;;;19.95;8.55;;;11.60;99.90;;;;;;10206734;28;84889;-57
2021/12/29 21:08:47;;;;;;;22.70;9.30;;;11.70;99.90;;;;;;10205675;28;84138;-52
2021/12/29 21:13:48;;;;;;;21.60;9.70;;;11.70;99.90;;;;;;10206329;28;84833;-54
2021/12/29 21:18:48;;;;;;;18.35;9.25;;;11.80;99.90;;;;;;10204188;28;86190;-55
2021/12/29 21:23:49;;;;;;;20.38;10.02;;;11.90;99.90;;;;;;10208056;28;84043;-56
2021/12/29 21:28:49;;;;;;;21.25;9.70;;;11.90;99.90;;;;;;10207933;28;84157;-52
2021/12/29 21:33:51;;;;;;;20.23;9.60;;;11.90;99.90;;;;;;10214280;28;84150;-53
2021/12/29 21:38:52;;;;;;;26.25;9.77;;;12.00;99.90;;;;;;10212476;28;84001;-54
2021/12/29 21:43:53;;;;;;;22.05;9.18;;;12.00;99.90;;;;;;10213096;28;84051;-51
2021/12/29 21:48:54;;;;;;;19.17;8.85;;;12.00;99.90;;;;;;10211525;28;84848;-53
2021/12/29 21:53:55;;;;;;;17.27;9.07;;;12.10;99.90;;;;;;10213380;28;84118;-53
2021/12/29 21:58:56;;;;;;;20.23;8.13;;;12.20;99.90;;;;;;10212714;28;84634;-52
2021/12/29 22:03:56;;;;;;;20.13;8.88;;;12.10;99.90;;;;;;10214018;28;84314;-56
2021/12/29 22:08:57;;;;;;;19.17;8.35;;;12.10;99.90;;;;;;10213731;28;84118;-55
2021/12/29 22:13:58;;;;;;;16.65;7.97;;;12.20;99.90;;;;;;10213400;28;84545;-53
2021/12/29 22:18:59;;;;;;;16.15;7.80;;;12.20;99.90;;;;;;10213021;28;84929;-54
2021/12/29 22:24:00;;;;;;;18.27;8.57;;;12.30;99.90;;;;;;10213900;28;84954;-52
2021/12/29 22:29:00;;;;;;;16.65;7.32;;;12.30;99.90;;;;;;10212572;28;84162;-53
2021/12/29 22:34:01;;;;;;;15.73;6.68;;;12.30;99.90;;;;;;10210519;28;84774;-53
2021/12/29 22:39:03;;;;;;;16.67;6.65;;;12.30;99.90;;;;;;10210837;28;84025;-52
2021/12/29 22:44:04;;;;;;;18.45;6.55;;;12.30;99.90;;;;;;10210511;28;84023;-53
2021/12/29 22:49:05;;;;;;;16.60;6.68;;;12.20;99.90;;;;;;10209891;28;84731;-51
2021/12/29 22:54:06;;;;;;;21.70;6.78;;;12.20;99.90;;;;;;10211438;28;84928;-54
2021/12/29 22:59:11;;;;;;;19.83;5.97;;;12.20;99.90;;;;;;10210495;28;84079;-52
2021/12/29 23:04:12;;;;;;;14.87;4.70;;;12.20;99.90;;;;;;10211006;28;84220;-54
2021/12/29 23:09:12;;;;;;;13.90;5.35;;;12.20;99.90;;;;;;10210642;28;85045;-53
2021/12/29 23:14:14;;;;;;;13.70;5.00;;;12.10;99.90;;;;;;10210112;28;84863;-51
2021/12/29 23:19:16;;;;;;;15.50;4.75;;;12.10;99.90;;;;;;10211432;28;84285;-55
2021/12/29 23:24:29;;;;;;;12.25;4.30;;;12.10;99.90;;;;;;10210267;28;84446;-51
2021/12/29 23:29:31;;;;;;;15.90;4.10;;;12.10;99.90;;;;;;10208935;28;84145;-56
2021/12/29 23:34:32;;;;;;;11.50;4.30;;;12.20;99.90;;;;;;10208539;28;84081;-57
2021/12/29 23:39:32;;;;;;;9.60;3.80;;;12.20;99.90;;;;;;10208490;28;84582;-53
2021/12/29 23:44:33;;;;;;;11.20;4.00;;;12.20;99.90;;;;;;10206900;28;84892;-56
2021/12/29 23:49:35;;;;;;;13.75;3.15;;;12.20;99.90;;;;;;10228227;23;84933;-53
2021/12/29 23:54:35;;;;;;;8.23;3.30;;;12.20;99.90;;;;;;10208109;28;84797;-56
2021/12/29 23:59:36;;;;;;;14.30;3.50;;;12.10;99.90;;;;;;10209174;28;84129;-53
